createdAt,value
2018-12-08T00:01:10.540Z,94886.96
2018-12-08T00:03:39.305Z,94887.58
2018-12-08T00:06:08.022Z,94879.37
2018-12-08T00:08:36.804Z,94880.53
2018-12-08T00:11:05.533Z,94875.77
2018-12-08T00:13:34.773Z,94878.97
2018-12-08T00:16:03.863Z,94868.90
2018-12-08T00:18:32.582Z,94868.63
2018-12-08T00:21:01.316Z,94865.01
2018-12-08T00:23:30.034Z,94864.64
2018-12-08T00:25:58.809Z,94861.16
2018-12-08T00:28:27.594Z,94854.23
2018-12-08T00:31:07.418Z,94858.64
2018-12-08T00:33:36.185Z,94857.85
2018-12-08T00:36:05.027Z,94851.84
2018-12-08T00:38:33.797Z,94846.27
2018-12-08T00:41:02.613Z,94851.97
2018-12-08T00:43:31.393Z,94846.61
2018-12-08T00:46:00.142Z,94846.61
2018-12-08T00:48:28.936Z,94844.30
2018-12-08T00:50:57.719Z,94846.83
2018-12-08T00:53:26.882Z,94845.95
2018-12-08T00:55:56.073Z,94850.63
2018-12-08T00:58:24.830Z,94852.22
2018-12-08T01:00:53.602Z,94846.52
2018-12-08T01:03:22.330Z,94844.41
2018-12-08T01:05:51.085Z,94843.94
2018-12-08T01:08:19.867Z,94838.30
2018-12-08T01:10:48.638Z,94835.64
2018-12-08T01:13:17.458Z,94832.69
2018-12-08T01:15:46.207Z,94829.30
2018-12-08T01:18:14.956Z,94821.83
2018-12-08T01:20:43.725Z,94816.33
2018-12-08T01:23:12.474Z,94819.33
2018-12-08T01:25:41.199Z,94814.85
2018-12-08T01:28:09.941Z,94818.29
2018-12-08T01:30:38.725Z,94817.13
2018-12-08T01:33:07.464Z,94812.13
2018-12-08T01:35:36.313Z,94805.84
2018-12-08T01:38:05.371Z,94809.71
2018-12-08T01:40:34.115Z,94803.66
2018-12-08T01:43:02.928Z,94807.88
2018-12-08T01:45:31.703Z,94802.71
2018-12-08T01:48:00.432Z,94793.01
2018-12-08T01:50:29.219Z,94781.84
2018-12-08T01:52:57.987Z,94785.70
2018-12-08T01:55:26.800Z,94780.34
2018-12-08T01:57:55.620Z,94776.68
2018-12-08T02:00:24.851Z,94778.22
2018-12-08T02:02:53.689Z,94774.34
2018-12-08T02:05:22.451Z,94769.69
2018-12-08T02:07:51.239Z,94772.00
2018-12-08T02:10:20.013Z,94773.28
2018-12-08T02:12:48.810Z,94772.47
2018-12-08T02:15:17.632Z,94772.68
2018-12-08T02:17:46.396Z,94764.13
2018-12-08T02:20:15.737Z,94763.18
2018-12-08T02:22:44.508Z,94759.72
2018-12-08T02:25:13.342Z,94751.71
2018-12-08T02:27:42.235Z,94752.53
2018-12-08T02:30:12.025Z,94750.83
2018-12-08T02:32:40.867Z,94747.50
2018-12-08T02:35:09.626Z,94747.55
2018-12-08T02:37:38.464Z,94752.45
2018-12-08T02:40:09.317Z,94756.45
2018-12-08T02:42:38.077Z,94746.16
2018-12-08T02:45:06.806Z,94749.97
2018-12-08T02:47:35.550Z,94747.39
2018-12-08T02:50:04.920Z,94749.21
2018-12-08T02:52:33.706Z,94746.09
2018-12-08T02:55:02.556Z,94741.00
2018-12-08T02:57:31.337Z,94736.80
2018-12-08T03:00:00.133Z,94734.99
2018-12-08T03:02:28.914Z,94737.44
2018-12-08T03:04:57.722Z,94738.05
2018-12-08T03:07:27.270Z,94731.98
2018-12-08T03:09:56.065Z,94731.51
2018-12-08T03:12:24.905Z,94732.34
2018-12-08T03:14:53.643Z,94728.77
2018-12-08T03:17:22.370Z,94733.36
2018-12-08T03:19:51.166Z,94734.05
2018-12-08T03:22:19.905Z,94738.17
2018-12-08T03:24:48.639Z,94732.34
2018-12-08T03:27:17.417Z,94734.23
2018-12-08T03:29:46.173Z,94741.71
2018-12-08T03:32:14.872Z,94733.05
2018-12-08T03:34:43.578Z,94734.55
2018-12-08T03:37:12.353Z,94739.28
2018-12-08T03:39:41.141Z,94742.96
2018-12-08T03:42:09.957Z,94734.59
2018-12-08T03:44:38.680Z,94733.78
2018-12-08T03:47:07.479Z,94734.34
2018-12-08T03:49:36.221Z,94731.75
2018-12-08T03:52:05.007Z,94730.07
2018-12-08T03:54:33.770Z,94722.05
2018-12-08T03:57:02.641Z,94720.16
2018-12-08T03:59:31.401Z,94711.83
2018-12-08T04:02:00.102Z,94716.91
2018-12-08T04:04:29.014Z,94718.53
2018-12-08T04:06:58.116Z,94722.75
2018-12-08T04:09:26.871Z,94715.70
2018-12-08T04:11:55.806Z,94716.05
2018-12-08T04:14:24.913Z,94707.08
2018-12-08T04:16:54.112Z,94710.08
2018-12-08T04:19:22.952Z,94719.22
2018-12-08T04:21:51.705Z,94717.38
2018-12-08T04:24:20.449Z,94703.20
2018-12-08T04:26:49.183Z,94705.38
2018-12-08T04:29:17.947Z,94707.96
2018-12-08T04:31:46.661Z,94711.35
2018-12-08T04:34:15.318Z,94708.48
2018-12-08T04:36:44.086Z,94709.25
2018-12-08T04:39:12.797Z,94718.48
2018-12-08T04:41:41.574Z,94707.70
2018-12-08T04:44:10.441Z,94714.33
2018-12-08T04:46:40.323Z,94713.98
2018-12-08T04:49:09.438Z,94720.16
2018-12-08T04:51:38.160Z,94720.91
2018-12-08T04:54:06.908Z,94717.20
2018-12-08T04:56:35.633Z,94716.98
2018-12-08T04:59:04.373Z,94725.27
2018-12-08T05:01:33.618Z,94719.48
2018-12-08T05:04:02.378Z,94726.56
2018-12-08T05:06:31.098Z,94725.80
2018-12-08T05:08:59.820Z,94715.09
2018-12-08T05:11:28.567Z,94719.22
2018-12-08T05:13:57.349Z,94716.91
2018-12-08T05:16:26.137Z,94718.96
2018-12-08T05:18:55.040Z,94718.66
2018-12-08T05:21:23.928Z,94718.75
2018-12-08T05:23:52.723Z,94718.66
2018-12-08T05:26:21.599Z,94722.41
2018-12-08T05:28:50.401Z,94730.00
2018-12-08T05:31:19.260Z,94731.03
2018-12-08T05:33:48.177Z,94725.93
2018-12-08T05:36:16.935Z,94725.19
2018-12-08T05:38:45.749Z,94724.24
2018-12-08T05:41:14.530Z,94725.80
2018-12-08T05:43:43.633Z,94730.90
2018-12-08T05:46:12.387Z,94719.62
2018-12-08T05:48:42.501Z,94723.91
2018-12-08T05:51:11.355Z,94722.06
2018-12-08T05:53:40.167Z,94723.78
2018-12-08T05:56:08.972Z,94719.36
2018-12-08T05:58:37.717Z,94724.59
2018-12-08T06:01:07.464Z,94727.77
2018-12-08T06:03:36.273Z,94732.19
2018-12-08T06:06:05.045Z,94731.24
2018-12-08T06:08:33.796Z,94731.41
2018-12-08T06:11:02.615Z,94732.83
2018-12-08T06:13:31.432Z,94730.06
2018-12-08T06:16:00.213Z,94732.33
2018-12-08T06:18:29.031Z,94731.98
2018-12-08T06:20:57.813Z,94739.24
2018-12-08T06:23:26.695Z,94735.48
2018-12-08T06:25:56.478Z,94732.19
2018-12-08T06:28:28.206Z,94731.56
2018-12-08T06:30:57.015Z,94734.72
2018-12-08T06:33:25.813Z,94738.25
2018-12-08T06:35:54.578Z,94737.88
2018-12-08T06:38:25.366Z,94737.53
2018-12-08T06:40:54.322Z,94741.33
2018-12-08T06:43:23.197Z,94739.06
2018-12-08T06:45:52.541Z,94742.56
2018-12-08T06:48:21.482Z,94748.61
2018-12-08T06:50:50.283Z,94750.41
2018-12-08T06:53:19.315Z,94750.20
2018-12-08T06:55:48.162Z,94747.49
2018-12-08T06:58:17.010Z,94741.01
2018-12-08T07:00:46.380Z,94739.42
2018-12-08T07:03:15.257Z,94735.52
2018-12-08T07:05:44.004Z,94741.69
2018-12-08T07:08:12.832Z,94736.69
2018-12-08T07:10:41.592Z,94735.10
2018-12-08T07:13:10.381Z,94734.73
2018-12-08T07:15:39.189Z,94727.44
2018-12-08T07:18:07.973Z,94718.85
2018-12-08T07:20:36.701Z,94718.23
2018-12-08T07:23:05.893Z,94717.80
2018-12-08T07:25:34.648Z,94711.06
2018-12-08T07:28:03.387Z,94710.63
2018-12-08T07:30:32.083Z,94698.48
2018-12-08T07:33:00.953Z,94702.36
2018-12-08T07:35:29.687Z,94699.04
2018-12-08T07:37:58.485Z,94691.03
2018-12-08T07:40:27.238Z,94697.02
2018-12-08T07:42:55.988Z,94702.77
2018-12-08T07:45:24.850Z,94697.79
2018-12-08T07:47:53.642Z,94705.37
2018-12-08T07:50:22.863Z,94698.65
2018-12-08T07:52:51.704Z,94706.38
2018-12-08T07:55:20.489Z,94701.13
2018-12-08T07:57:49.262Z,94706.64
2018-12-08T08:00:18.111Z,94706.72
2018-12-08T08:02:46.854Z,94701.42
2018-12-08T08:05:15.881Z,94697.87
2018-12-08T08:07:44.637Z,94700.84
2018-12-08T08:10:13.368Z,94698.44
2018-12-08T08:12:42.124Z,94690.84
2018-12-08T08:15:11.514Z,94688.76
2018-12-08T08:17:40.318Z,94693.94
2018-12-08T08:20:11.092Z,94686.86
2018-12-08T08:22:40.013Z,94686.73
2018-12-08T08:25:10.716Z,94686.72
2018-12-08T08:27:39.413Z,94692.23
2018-12-08T08:30:11.065Z,94679.91
2018-12-08T08:32:39.847Z,94677.64
2018-12-08T08:35:09.967Z,94678.92
2018-12-08T08:37:38.722Z,94676.80
2018-12-08T08:40:09.794Z,94676.48
2018-12-08T08:42:38.921Z,94678.59
2018-12-08T08:45:08.971Z,94676.00
2018-12-08T08:47:37.729Z,94673.91
2018-12-08T08:50:09.540Z,94686.06
2018-12-08T08:52:38.349Z,94685.89
2018-12-08T08:55:07.335Z,94682.03
2018-12-08T08:57:36.095Z,94681.89
2018-12-08T09:00:10.280Z,94680.12
2018-12-08T09:02:39.020Z,94685.47
2018-12-08T09:05:08.151Z,94673.95
2018-12-08T09:07:36.956Z,94673.46
2018-12-08T09:10:09.370Z,94673.80
2018-12-08T09:12:38.098Z,94674.78
2018-12-08T09:15:08.769Z,94673.31
2018-12-08T09:17:37.479Z,94663.56
2018-12-08T09:20:09.575Z,94661.45
2018-12-08T09:22:38.556Z,94659.81
2018-12-08T09:25:08.996Z,94656.55
2018-12-08T09:27:37.895Z,94651.66
2018-12-08T09:30:11.817Z,94643.52
2018-12-08T09:32:40.522Z,94641.63
2018-12-08T09:35:09.599Z,94635.44
2018-12-08T09:37:38.383Z,94630.89
2018-12-08T09:40:08.201Z,94627.16
2018-12-08T09:42:36.947Z,94627.48
2018-12-08T09:45:06.948Z,94626.03
2018-12-08T09:47:36.280Z,94628.95
2018-12-08T09:50:06.880Z,94618.56
2018-12-08T09:52:35.633Z,94621.48
2018-12-08T09:55:05.712Z,94615.97
2018-12-08T09:57:34.560Z,94619.34
2018-12-08T10:00:07.587Z,94619.55
2018-12-08T10:02:36.322Z,94607.92
2018-12-08T10:05:05.657Z,94599.78
2018-12-08T10:07:34.440Z,94603.02
2018-12-08T10:10:03.186Z,94601.89
2018-12-08T10:12:31.966Z,94593.70
2018-12-08T10:15:00.763Z,94585.59
2018-12-08T10:17:29.539Z,94586.55
2018-12-08T10:19:58.388Z,94576.02
2018-12-08T10:22:27.990Z,94577.00
2018-12-08T10:24:57.112Z,94575.39
2018-12-08T10:27:26.400Z,94577.50
2018-12-08T10:29:55.595Z,94565.17
2018-12-08T10:32:24.396Z,94571.97
2018-12-08T10:34:53.207Z,94563.05
2018-12-08T10:37:22.017Z,94561.29
2018-12-08T10:39:53.966Z,94550.91
2018-12-08T10:42:23.285Z,94545.89
2018-12-08T10:44:52.038Z,94546.70
2018-12-08T10:47:20.827Z,94545.73
2018-12-08T10:49:49.613Z,94539.27
2018-12-08T10:52:18.370Z,94537.00
2018-12-08T10:54:47.167Z,94540.91
2018-12-08T10:57:15.935Z,94542.55
2018-12-08T10:59:44.846Z,94530.23
2018-12-08T11:02:18.915Z,94526.65
2018-12-08T11:04:47.703Z,94522.94
2018-12-08T11:07:16.982Z,94522.80
2018-12-08T11:09:45.734Z,94522.30
2018-12-08T11:12:14.530Z,94521.98
2018-12-08T11:14:43.343Z,94518.91
2018-12-08T11:17:12.112Z,94513.52
2018-12-08T11:19:40.954Z,94509.42
2018-12-08T11:22:09.677Z,94509.35
2018-12-08T11:24:38.474Z,94496.50
2018-12-08T11:27:07.221Z,94494.75
2018-12-08T11:29:35.987Z,94491.19
2018-12-08T11:32:05.318Z,94492.94
2018-12-08T11:34:34.098Z,94493.90
2018-12-08T11:37:03.175Z,94495.64
2018-12-08T11:39:31.955Z,94482.02
2018-12-08T11:42:01.629Z,94470.62
2018-12-08T11:44:30.451Z,94455.73
2018-12-08T11:46:59.757Z,94454.61
2018-12-08T11:49:28.608Z,94465.36
2018-12-08T11:51:57.653Z,94463.53
2018-12-08T11:54:26.467Z,94467.22
2018-12-08T11:56:55.378Z,94473.48
2018-12-08T11:59:24.202Z,94475.42
2018-12-08T12:01:52.985Z,94480.84
2018-12-08T12:04:21.713Z,94476.95
2018-12-08T12:06:50.779Z,94481.01
2018-12-08T12:09:19.709Z,94482.78
2018-12-08T12:11:48.555Z,94475.54
2018-12-08T12:14:17.396Z,94480.88
2018-12-08T12:16:46.103Z,94487.23
2018-12-08T12:19:14.923Z,94490.52
2018-12-08T12:21:43.637Z,94477.17
2018-12-08T12:24:12.389Z,94477.75
2018-12-08T12:26:41.142Z,94480.51
2018-12-08T12:29:09.910Z,94482.13
2018-12-08T12:31:38.681Z,94476.94
2018-12-08T12:34:07.452Z,94468.98
2018-12-08T12:36:36.215Z,94466.66
2018-12-08T12:39:06.612Z,94458.04
2018-12-08T12:41:35.313Z,94460.97
2018-12-08T12:44:04.529Z,94452.67
2018-12-08T12:46:33.341Z,94454.41
2018-12-08T12:49:02.103Z,94464.74
2018-12-08T12:51:30.891Z,94459.80
2018-12-08T12:53:59.647Z,94454.04
2018-12-08T12:56:28.430Z,94456.15
2018-12-08T12:58:57.328Z,94460.66
2018-12-08T13:01:26.580Z,94467.72
2018-12-08T13:03:56.105Z,94465.45
2018-12-08T13:06:25.276Z,94464.07
2018-12-08T13:08:54.550Z,94457.77
2018-12-08T13:11:23.483Z,94453.67
2018-12-08T13:13:52.340Z,94450.41
2018-12-08T13:16:21.297Z,94438.66
2018-12-08T13:18:50.052Z,94440.20
2018-12-08T13:21:18.839Z,94432.48
2018-12-08T13:23:47.551Z,94437.00
2018-12-08T13:26:16.331Z,94437.11
2018-12-08T13:28:45.236Z,94433.31
2018-12-08T13:31:14.048Z,94436.06
2018-12-08T13:33:42.846Z,94429.57
2018-12-08T13:36:12.002Z,94438.66
2018-12-08T13:38:40.791Z,94442.73
2018-12-08T13:41:09.724Z,94444.03
2018-12-08T13:43:38.564Z,94453.00
2018-12-08T13:46:07.405Z,94457.45
2018-12-08T13:48:36.692Z,94451.70
2018-12-08T13:51:05.848Z,94455.63
2018-12-08T13:53:36.935Z,94452.19
2018-12-08T13:56:06.189Z,94450.17
2018-12-08T13:58:35.078Z,94454.72
2018-12-08T14:01:04.036Z,94457.64
2018-12-08T14:03:32.959Z,94453.91
2018-12-08T14:06:01.787Z,94453.91
2018-12-08T14:08:31.663Z,94458.73
2018-12-08T14:11:00.608Z,94468.28
2018-12-08T14:13:29.500Z,94458.39
2018-12-08T14:15:58.372Z,94466.03
2018-12-08T14:18:27.209Z,94473.65
2018-12-08T14:20:56.026Z,94473.80
2018-12-08T14:23:24.803Z,94479.48
2018-12-08T14:25:53.573Z,94494.41
2018-12-08T14:28:22.869Z,94486.74
2018-12-08T14:30:51.663Z,94491.94
2018-12-08T14:33:20.507Z,94486.72
2018-12-08T14:35:49.261Z,94489.27
2018-12-08T14:38:17.977Z,94485.87
2018-12-08T14:40:46.906Z,94483.31
2018-12-08T14:43:15.867Z,94485.75
2018-12-08T14:45:44.668Z,94486.41
2018-12-08T14:48:13.522Z,94476.68
2018-12-08T14:50:45.970Z,94470.24
2018-12-08T14:53:14.677Z,94458.28
2018-12-08T14:55:44.063Z,94460.28
2018-12-08T14:58:12.984Z,94465.03
2018-12-08T15:00:41.822Z,94469.25
2018-12-08T15:03:10.621Z,94471.56
2018-12-08T15:05:39.506Z,94465.24
2018-12-08T15:08:08.455Z,94467.47
2018-12-08T15:10:37.228Z,94481.91
2018-12-08T15:13:06.029Z,94496.38
2018-12-08T15:15:35.012Z,94487.78
2018-12-08T15:18:04.224Z,94483.53
2018-12-08T15:20:33.000Z,94479.35
2018-12-08T15:23:02.040Z,94473.35
2018-12-08T15:25:30.862Z,94471.93
2018-12-08T15:27:59.601Z,94474.08
2018-12-08T15:30:28.438Z,94478.36
2018-12-08T15:32:57.227Z,94479.48
2018-12-08T15:35:26.045Z,94482.57
2018-12-08T15:37:55.352Z,94478.00
2018-12-08T15:40:24.230Z,94477.35
2018-12-08T15:42:53.153Z,94478.97
2018-12-08T15:45:21.971Z,94485.78
2018-12-08T15:47:50.695Z,94491.32
2018-12-08T15:50:19.707Z,94486.59
2018-12-08T15:52:48.981Z,94486.78
2018-12-08T15:55:17.981Z,94486.48
2018-12-08T15:57:46.753Z,94476.95
2018-12-08T16:00:16.594Z,94465.75
2018-12-08T16:02:45.387Z,94456.48
2018-12-08T16:05:14.225Z,94461.20
2018-12-08T16:07:43.055Z,94462.69
2018-12-08T16:10:12.279Z,94467.04
2018-12-08T16:12:41.034Z,94472.39
2018-12-08T16:15:11.230Z,94458.29
2018-12-08T16:17:41.706Z,94464.28
2018-12-08T16:20:13.187Z,94459.91
2018-12-08T16:22:41.924Z,94456.34
2018-12-08T16:25:10.695Z,94461.20
2018-12-08T16:27:39.522Z,94471.41
2018-12-08T16:30:11.848Z,94473.20
2018-12-08T16:32:40.772Z,94468.80
2018-12-08T16:35:10.947Z,94468.92
2018-12-08T16:37:40.138Z,94465.65
2018-12-08T16:40:09.355Z,94472.09
2018-12-08T16:42:38.817Z,94473.39
2018-12-08T16:45:17.237Z,94466.09
2018-12-08T16:47:46.009Z,94465.61
2018-12-08T16:50:14.829Z,94466.94
2018-12-08T16:52:44.677Z,94468.44
2018-12-08T16:55:13.458Z,94472.16
2018-12-08T16:57:42.377Z,94467.92
2018-12-08T17:00:11.946Z,94466.30
2018-12-08T17:02:40.676Z,94471.81
2018-12-08T17:05:09.556Z,94469.54
2018-12-08T17:07:38.352Z,94471.64
2018-12-08T17:10:08.472Z,94468.11
2018-12-08T17:12:37.288Z,94468.20
2018-12-08T17:15:06.929Z,94463.98
2018-12-08T17:17:35.704Z,94461.72
2018-12-08T17:20:05.488Z,94470.11
2018-12-08T17:22:34.283Z,94476.31
2018-12-08T17:25:03.074Z,94469.50
2018-12-08T17:27:31.904Z,94474.05
2018-12-08T17:30:00.603Z,94477.03
2018-12-08T17:32:29.431Z,94468.02
2018-12-08T17:34:58.225Z,94474.21
2018-12-08T17:37:27.015Z,94476.30
2018-12-08T17:39:55.707Z,94481.32
2018-12-08T17:42:24.518Z,94482.95
2018-12-08T17:44:53.243Z,94487.45
2018-12-08T17:47:22.020Z,94490.70
2018-12-08T17:49:50.861Z,94489.40
2018-12-08T17:52:19.642Z,94491.99
2018-12-08T17:54:50.199Z,94485.34
2018-12-08T17:57:19.915Z,94488.75
2018-12-08T17:59:48.702Z,94484.19
2018-12-08T18:02:17.455Z,94487.11
2018-12-08T18:04:46.215Z,94481.76
2018-12-08T18:07:15.054Z,94478.03
2018-12-08T18:09:44.543Z,94471.03
2018-12-08T18:12:13.384Z,94477.67
2018-12-08T18:14:42.258Z,94478.81
2018-12-08T18:17:11.512Z,94477.55
2018-12-08T18:19:40.217Z,94474.98
2018-12-08T18:22:09.376Z,94480.52
2018-12-08T18:24:38.235Z,94474.52
2018-12-08T18:27:07.371Z,94474.23
2018-12-08T18:29:36.186Z,94477.77
2018-12-08T18:32:05.293Z,94471.78
2018-12-08T18:34:34.098Z,94471.48
2018-12-08T18:37:02.874Z,94480.53
2018-12-08T18:39:31.894Z,94479.38
2018-12-08T18:42:00.937Z,94472.92
2018-12-08T18:44:30.076Z,94472.89
2018-12-08T18:46:58.796Z,94472.73
2018-12-08T18:49:27.641Z,94472.89
2018-12-08T18:51:56.428Z,94472.25
2018-12-08T18:54:25.201Z,94469.33
2018-12-08T18:56:53.984Z,94465.61
2018-12-08T18:59:22.898Z,94472.39
2018-12-08T19:01:51.619Z,94473.20
2018-12-08T19:04:20.365Z,94468.98
2018-12-08T19:06:50.067Z,94466.06
2018-12-08T19:09:18.829Z,94461.38
2018-12-08T19:11:47.605Z,94464.42
2018-12-08T19:14:16.442Z,94473.49
2018-12-08T19:16:45.268Z,94471.73
2018-12-08T19:19:14.121Z,94472.87
2018-12-08T19:21:42.923Z,94472.55
2018-12-08T19:24:11.731Z,94472.70
2018-12-08T19:26:40.432Z,94460.88
2018-12-08T19:29:09.324Z,94469.60
2018-12-08T19:31:38.189Z,94472.73
2018-12-08T19:34:07.023Z,94469.50
2018-12-08T19:36:36.691Z,94462.05
2018-12-08T19:39:07.325Z,94467.71
2018-12-08T19:41:36.142Z,94470.66
2018-12-08T19:44:05.206Z,94468.05
2018-12-08T19:46:34.037Z,94474.84
2018-12-08T19:49:02.803Z,94471.62
2018-12-08T19:51:31.576Z,94470.19
2018-12-08T19:54:00.397Z,94478.60
2018-12-08T19:56:29.145Z,94478.78
2018-12-08T19:58:57.978Z,94485.89
2018-12-08T20:01:26.780Z,94487.20
2018-12-08T20:03:55.836Z,94475.22
2018-12-08T20:06:24.632Z,94475.87
2018-12-08T20:08:53.418Z,94473.27
2018-12-08T20:11:22.200Z,94478.45
2018-12-08T20:13:51.373Z,94476.33
2018-12-08T20:16:20.239Z,94471.80
2018-12-08T20:18:49.029Z,94470.65
2018-12-08T20:21:17.772Z,94478.94
2018-12-08T20:23:46.476Z,94467.47
2018-12-08T20:26:15.193Z,94468.72
2018-12-08T20:28:43.989Z,94472.45
2018-12-08T20:31:12.766Z,94468.41
2018-12-08T20:33:41.498Z,94472.92
2018-12-08T20:36:10.626Z,94471.30
2018-12-08T20:38:39.358Z,94462.06
2018-12-08T20:41:08.089Z,94450.24
2018-12-08T20:43:36.856Z,94453.31
2018-12-08T20:46:05.617Z,94457.99
2018-12-08T20:48:34.351Z,94453.13
2018-12-08T20:51:03.132Z,94451.64
2018-12-08T20:53:31.889Z,94450.84
2018-12-08T20:56:00.669Z,94451.19
2018-12-08T20:58:29.417Z,94449.89
2018-12-08T21:00:58.397Z,94447.16
2018-12-08T21:03:27.105Z,94444.06
2018-12-08T21:05:55.851Z,94444.58
2018-12-08T21:08:24.594Z,94452.51
2018-12-08T21:10:53.408Z,94453.64
2018-12-08T21:13:22.146Z,94452.97
2018-12-08T21:15:50.920Z,94454.56
2018-12-08T21:18:19.652Z,94452.13
2018-12-08T21:20:48.473Z,94447.44
2018-12-08T21:23:17.205Z,94447.41
2018-12-08T21:25:45.993Z,94459.23
2018-12-08T21:28:14.757Z,94452.03
2018-12-08T21:30:43.595Z,94453.48
2018-12-08T21:33:12.319Z,94460.42
2018-12-08T21:35:41.131Z,94466.91
2018-12-08T21:38:09.924Z,94465.58
2018-12-08T21:40:38.662Z,94455.88
2018-12-08T21:43:07.697Z,94459.33
2018-12-08T21:45:36.414Z,94452.81
2018-12-08T21:48:05.131Z,94451.70
2018-12-08T21:50:33.917Z,94446.84
2018-12-08T21:53:02.679Z,94446.27
2018-12-08T21:55:31.388Z,94445.81
2018-12-08T21:58:00.143Z,94447.11
2018-12-08T22:00:28.933Z,94444.03
2018-12-08T22:02:57.656Z,94445.35
2018-12-08T22:05:26.357Z,94443.11
2018-12-08T22:07:55.125Z,94455.23
2018-12-08T22:10:23.857Z,94455.08
2018-12-08T22:12:52.905Z,94461.42
2018-12-08T22:15:21.790Z,94465.63
2018-12-08T22:17:50.511Z,94462.91
2018-12-08T22:20:19.710Z,94461.97
2018-12-08T22:22:48.603Z,94463.90
2018-12-08T22:25:17.355Z,94466.81
2018-12-08T22:27:46.176Z,94466.00
2018-12-08T22:30:14.989Z,94457.44
2018-12-08T22:32:43.746Z,94458.88
2018-12-08T22:35:12.490Z,94458.06
2018-12-08T22:37:41.208Z,94455.16
2018-12-08T22:40:11.377Z,94451.41
2018-12-08T22:42:40.293Z,94455.45
2018-12-08T22:45:09.460Z,94443.63
2018-12-08T22:47:38.229Z,94448.66
2018-12-08T22:50:07.911Z,94437.83
2018-12-08T22:52:36.688Z,94437.67
2018-12-08T22:55:06.384Z,94433.95
2018-12-08T22:57:35.289Z,94433.27
2018-12-08T23:00:10.187Z,94428.43
2018-12-08T23:02:38.966Z,94426.15
2018-12-08T23:05:07.728Z,94425.67
2018-12-08T23:07:36.463Z,94428.41
2018-12-08T23:10:06.205Z,94434.72
2018-12-08T23:12:35.016Z,94422.54
2018-12-08T23:15:04.595Z,94428.09
2018-12-08T23:17:33.365Z,94429.87
2018-12-08T23:20:02.199Z,94428.59
2018-12-08T23:22:30.990Z,94421.11
2018-12-08T23:24:59.702Z,94425.94
2018-12-08T23:27:28.871Z,94425.62
2018-12-08T23:29:57.614Z,94428.99
2018-12-08T23:32:26.316Z,94432.23
2018-12-08T23:34:55.027Z,94428.86
2018-12-08T23:37:23.764Z,94431.42
2018-12-08T23:39:52.549Z,94439.09
2018-12-08T23:42:21.477Z,94439.55
2018-12-08T23:44:50.428Z,94444.73
2018-12-08T23:47:19.193Z,94444.06
2018-12-08T23:49:54.565Z,94453.64
2018-12-08T23:52:23.333Z,94458.34
2018-12-08T23:54:52.110Z,94452.34
2018-12-08T23:57:20.864Z,94458.50
2018-12-08T23:59:49.638Z,94463.20
